Riverside, PA (17868)

06:21 AM EST del 25 Febbraio 2017 (GMT -0500)
Valley View Road | | Change Station

Alt. 685 ft 41.00 °N, 76.62 °W | Updated 3 minutes ago

Coperto
Coperto
60.3 °F
Sembra 60.3 °F
N
0.0
Vento Variabile Vento da Nord
Gusts 1.9 mph

Oggi
Massima -- | Minima -- °F
--% Possibilità di precip.
Ieri
Massima -- | Minima -- °F
Precip. -- in
Pressione 29.63 in
Visibilità 10.0 miglia
Nuvole Molto nuvoloso 2100 ft
Punto di rugiada 54 °F
Umidità 81%
Piovosità 0.00 in
Spessore del manto nevoso Non disponibile.
6:46 AM 5:53 PM
Luna calante, 2% visible
METAR KSEG 251053Z AUTO 18009KT 10SM BKN021 16/14 A2963 RMK AO2 SLP033 T01610139
Pressione 29.63 in
Visibilità 10.0 miglia
Nuvole Molto nuvoloso 2100 ft
Punto di rugiada 54 °F
Umidità 81%
Piovosità 0.00 in
Spessore del manto nevoso Non disponibile.
6:46 AM 5:53 PM
Luna calante, 2% visible
METAR KSEG 251053Z AUTO 18009KT 10SM BKN021 16/14 A2963 RMK AO2 SLP033 T01610139

Get Your Daily Forecast Email!

Thanks for signing up!

Be on the lookout for a verification email in your inbox.

You'll start receiving the daily forecast at 8 AM.

×

10-Day Weather Forecast

Almanac

Astronomia

Feb. 25, 2017 Alba Tramonto
Ora attuale
Crepuscolo civile
Crepuscolo nautico
Crepuscolo astronomico
Luna
Estensione della luce visibile
Lunghezza del giorno
Tomorrow will be .
, % of the Moon is Illuminated

Gli estremi di oggi

State Highs State Lows

Community

WunderPhotos

Upload Photos

1,962,540 foto caricate!

WunderBlog® & News

Nearby

Qualità dell'aria

  Qualità dell'aria Indice AQ Inquinante
Not available.

Profondità neve

Stazione Profondità Altitudine

Attività sismica

Città  Distanza Mag. Data & Ora
Minimo Magnitudo Mostrato è 2.5.

Temperature delle acque costiere

Località Temperatura

Stations

Stazioni meteo nelle vicinanze

Ubicazione della stazione Temp. Raffreddamento del vento Punto di rugiada Umidità Vento Precip. Alt. Aggiornato Tipo
                   

Watches & Warnings

There are currently no watches in effect.